Time;durP1;ratioP1;P1;durP2;ratioP2;P2;SDS_P1;SDS_P2;PMS_P1;PMS_P2;Temp;Humidity;BMP_temperature;BMP_pressure;BME280_temperature;BME280_humidity;BME280_pressure;Samples;Min_cycle;Max_cycle;Signal;HPM_P1;HPM_P2
2023/05/02 00:02:11;;;;;;;18.13;3.10;;;10.10;99.90;;;;;;4982647;28;20442;-79
2023/05/02 00:04:57;;;;;;;13.15;2.92;;;10.10;99.90;;;;;;4997451;28;20056;-81
2023/05/02 00:07:44;;;;;;;12.00;3.88;;;10.10;99.90;;;;;;4995769;28;20444;-79
2023/05/02 00:10:31;;;;;;;10.80;3.13;;;10.00;99.90;;;;;;5013946;28;20056;-80
2023/05/02 00:13:17;;;;;;;14.88;3.03;;;10.00;99.90;;;;;;4982206;28;20049;-78
2023/05/02 00:16:05;;;;;;;17.55;2.80;;;9.90;99.90;;;;;;4982874;28;20050;-82
2023/05/02 00:18:51;;;;;;;13.18;2.88;;;10.00;99.90;;;;;;4998877;28;20054;-81
2023/05/02 00:21:37;;;;;;;15.23;2.78;;;10.00;99.90;;;;;;4982688;28;20050;-79
2023/05/02 00:24:23;;;;;;;5.88;2.00;;;9.90;99.90;;;;;;5012018;28;20050;-82
2023/05/02 00:27:10;;;;;;;12.65;3.15;;;10.00;99.90;;;;;;4982149;28;20054;-79
2023/05/02 00:29:56;;;;;;;23.80;3.97;;;10.00;99.90;;;;;;5013270;28;20057;-78
2023/05/02 00:32:42;;;;;;;15.77;3.85;;;9.90;99.90;;;;;;4995695;28;20038;-81
2023/05/02 00:35:30;;;;;;;19.65;4.50;;;9.90;99.90;;;;;;5013404;28;20053;-80
2023/05/02 00:38:16;;;;;;;24.45;4.85;;;9.80;99.90;;;;;;4984413;28;20565;-80
2023/05/02 00:41:04;;;;;;;19.45;4.15;;;9.70;99.90;;;;;;5013541;28;20070;-80
2023/05/02 00:43:50;;;;;;;15.75;3.65;;;9.60;99.90;;;;;;4995277;28;20105;-82
2023/05/02 00:46:36;;;;;;;15.32;4.05;;;9.60;99.90;;;;;;5012527;28;20064;-79
2023/05/02 00:49:22;;;;;;;15.80;3.95;;;9.50;99.90;;;;;;4981750;28;20054;-80
2023/05/02 00:52:09;;;;;;;26.00;4.72;;;9.50;99.90;;;;;;4994309;28;20058;-80
2023/05/02 00:54:55;;;;;;;26.83;4.13;;;9.40;99.90;;;;;;4995743;28;20046;-80
2023/05/02 00:57:44;;;;;;;19.70;3.80;;;9.40;99.90;;;;;;5012000;28;20081;-81
2023/05/02 01:01:05;;;;;;;17.20;3.42;;;9.30;99.90;;;;;;5012860;28;20470;-80
2023/05/02 01:04:12;;;;;;;17.88;4.13;;;9.30;99.90;;;;;;4981030;28;20552;-80
2023/05/02 01:07:13;;;;;;;18.60;3.67;;;9.20;99.90;;;;;;4995250;28;20046;-82
2023/05/02 01:10:17;;;;;;;27.10;5.68;;;9.20;99.90;;;;;;4993536;28;20096;-80
2023/05/02 01:13:28;;;;;;;23.33;4.03;;;9.10;99.90;;;;;;5011316;28;20510;-81
2023/05/02 01:16:17;;;;;;;25.77;4.50;;;9.10;99.90;;;;;;4993286;28;20050;-81
2023/05/02 01:19:18;;;;;;;31.08;5.93;;;9.10;99.90;;;;;;4995247;28;20058;-79
2023/05/02 01:22:10;;;;;;;22.35;4.57;;;9.00;99.90;;;;;;4994007;28;20140;-81
2023/05/02 01:25:15;;;;;;;20.90;4.82;;;9.00;99.90;;;;;;5000040;28;20042;-80
2023/05/02 01:28:21;;;;;;;23.70;4.57;;;8.90;99.90;;;;;;4999616;28;20046;-80
2023/05/02 01:31:08;;;;;;;20.42;5.50;;;8.90;99.90;;;;;;4998494;28;20054;-81
2023/05/02 01:33:55;;;;;;;23.88;5.35;;;8.80;99.90;;;;;;4998311;28;20046;-80
2023/05/02 01:36:49;;;;;;;22.27;4.50;;;8.80;99.90;;;;;;4995396;28;20114;-78
2023/05/02 01:39:37;;;;;;;28.63;5.57;;;8.70;99.90;;;;;;4993889;28;20141;-81
2023/05/02 01:42:29;;;;;;;20.10;4.70;;;8.70;99.90;;;;;;4997919;28;20516;-81
2023/05/02 01:45:20;;;;;;;22.38;4.43;;;8.70;99.90;;;;;;5012248;28;20057;-82
2023/05/02 01:48:09;;;;;;;14.43;3.70;;;8.70;99.90;;;;;;4979981;28;20054;-81
2023/05/02 01:50:57;;;;;;;18.25;3.85;;;8.70;99.90;;;;;;4994915;28;20054;-81
2023/05/02 01:53:47;;;;;;;22.13;4.70;;;8.60;99.90;;;;;;4994348;28;20065;-80
2023/05/02 01:56:36;;;;;;;22.17;4.35;;;8.60;99.90;;;;;;4994929;28;20056;-79
2023/05/02 01:59:24;;;;;;;12.88;3.50;;;8.60;99.90;;;;;;5011417;28;20069;-79
2023/05/02 02:02:12;;;;;;;16.00;2.92;;;8.60;99.90;;;;;;5012042;28;20553;-80
2023/05/02 02:04:59;;;;;;;11.65;2.80;;;8.60;99.90;;;;;;5012160;28;20046;-80
2023/05/02 02:07:45;;;;;;;24.90;5.10;;;8.60;99.90;;;;;;4993601;28;20062;-79
2023/05/02 02:10:39;;;;;;;19.60;3.88;;;8.50;99.90;;;;;;5010253;28;20050;-78
2023/05/02 02:13:33;;;;;;;15.63;3.38;;;8.50;99.90;;;;;;4992928;28;20157;-79
2023/05/02 02:16:24;;;;;;;23.15;3.78;;;8.50;99.90;;;;;;4992563;28;20053;-78
2023/05/02 02:19:13;;;;;;;21.33;4.40;;;8.50;99.90;;;;;;4978520;28;20060;-78
2023/05/02 02:22:01;;;;;;;13.70;3.90;;;8.50;99.90;;;;;;4984592;28;20064;-78
2023/05/02 02:24:48;;;;;;;19.33;3.45;;;8.50;99.90;;;;;;4993495;28;20057;-78
2023/05/02 02:27:36;;;;;;;20.00;3.17;;;8.40;99.90;;;;;;5011019;28;20054;-79
2023/05/02 02:30:22;;;;;;;15.52;3.15;;;8.40;99.90;;;;;;4980332;28;20053;-80
2023/05/02 02:33:08;;;;;;;13.45;2.75;;;8.30;99.90;;;;;;4992174;28;20084;-79
2023/05/02 02:36:06;;;;;;;15.43;4.22;;;8.30;99.90;;;;;;4992765;28;20042;-79
2023/05/02 02:39:17;;;;;;;23.70;5.10;;;8.30;99.90;;;;;;5009398;28;20046;-80
2023/05/02 02:42:38;;;;;;;14.18;2.67;;;8.20;99.90;;;;;;4992786;28;20119;-78
2023/05/02 02:45:37;;;;;;;11.73;2.47;;;8.20;99.90;;;;;;4993997;28;20061;-80
2023/05/02 02:48:54;;;;;;;9.90;2.28;;;8.20;99.90;;;;;;4992711;28;20054;-80
2023/05/02 02:52:04;;;;;;;16.30;2.50;;;8.20;99.90;;;;;;4992134;28;20060;-80
2023/05/02 02:54:59;;;;;;;14.93;3.42;;;8.20;99.90;;;;;;4993587;28;20079;-82
2023/05/02 02:58:06;;;;;;;14.05;2.55;;;8.20;99.90;;;;;;4995933;28;20050;-80
2023/05/02 03:01:01;;;;;;;10.27;2.20;;;8.20;99.90;;;;;;5010282;28;20084;-82
2023/05/02 03:03:50;;;;;;;19.25;2.70;;;8.20;99.90;;;;;;5007655;28;20417;-82
2023/05/02 03:06:36;;;;;;;14.13;2.60;;;8.20;99.90;;;;;;4992522;28;20046;-83
2023/05/02 03:09:22;;;;;;;9.23;1.92;;;8.20;99.90;;;;;;4992914;28;20064;-81
2023/05/02 03:12:08;;;;;;;12.10;2.33;;;8.10;99.90;;;;;;5007833;28;20144;-81
2023/05/02 03:15:23;;;;;;;11.40;2.70;;;8.20;99.90;;;;;;4993185;28;20042;-81
2023/05/02 03:18:09;;;;;;;11.40;2.40;;;8.10;99.90;;;;;;5010356;28;20073;-80
2023/05/02 03:20:55;;;;;;;9.00;1.58;;;8.10;99.90;;;;;;5011043;28;20072;-79
2023/05/02 03:23:44;;;;;;;7.97;1.88;;;8.10;99.90;;;;;;5011042;28;20131;-78
2023/05/02 03:26:30;;;;;;;12.73;2.13;;;8.10;99.90;;;;;;4992667;28;20057;-80
2023/05/02 03:29:16;;;;;;;12.38;2.78;;;8.10;99.90;;;;;;4996139;28;20470;-82
2023/05/02 03:32:03;;;;;;;7.65;1.70;;;8.00;99.90;;;;;;4997155;28;20054;-81
2023/05/02 03:34:49;;;;;;;7.50;2.28;;;8.00;99.90;;;;;;4997805;28;20062;-81
2023/05/02 03:37:35;;;;;;;10.43;2.60;;;8.00;99.90;;;;;;4999508;28;20058;-79
2023/05/02 03:40:21;;;;;;;9.52;1.65;;;7.90;99.90;;;;;;4999230;28;20054;-79
2023/05/02 03:43:07;;;;;;;10.65;2.15;;;7.90;99.90;;;;;;5013963;28;20046;-78
2023/05/02 03:45:54;;;;;;;8.50;1.80;;;7.90;99.90;;;;;;5013274;28;20108;-78
2023/05/02 03:48:40;;;;;;;11.25;3.92;;;7.90;99.90;;;;;;4996536;28;20049;-77
2023/05/02 03:51:26;;;;;;;14.18;1.88;;;7.90;99.90;;;;;;4995323;28;20046;-77
2023/05/02 03:54:12;;;;;;;11.45;2.42;;;7.90;99.90;;;;;;4996000;28;20411;-79
2023/05/02 03:56:59;;;;;;;10.98;1.88;;;7.90;99.90;;;;;;4996562;28;20065;-79
2023/05/02 03:59:46;;;;;;;20.25;3.30;;;7.90;99.90;;;;;;4995516;28;20053;-79
2023/05/02 04:02:32;;;;;;;14.00;2.20;;;7.80;99.90;;;;;;4995718;28;20057;-78
2023/05/02 04:05:18;;;;;;;15.23;2.13;;;7.90;99.90;;;;;;5013696;28;20413;-78
2023/05/02 04:08:04;;;;;;;12.05;2.15;;;7.90;99.90;;;;;;4996351;28;20080;-77
2023/05/02 04:10:51;;;;;;;15.65;2.58;;;7.90;99.90;;;;;;4995941;28;20594;-79
2023/05/02 04:13:37;;;;;;;14.05;3.30;;;7.90;99.90;;;;;;4995777;28;20058;-80
2023/05/02 04:16:24;;;;;;;13.73;3.00;;;7.90;99.90;;;;;;4994969;28;20050;-77
2023/05/02 04:19:10;;;;;;;13.18;2.08;;;7.90;99.90;;;;;;4995573;28;20086;-77
2023/05/02 04:22:00;;;;;;;9.90;2.25;;;7.90;99.90;;;;;;5013172;28;20058;-77
2023/05/02 04:24:47;;;;;;;8.88;2.15;;;7.80;99.90;;;;;;4980518;28;20050;-79
2023/05/02 04:27:33;;;;;;;10.25;2.28;;;7.80;99.90;;;;;;4999043;28;20041;-78
2023/05/02 04:30:19;;;;;;;16.30;2.58;;;7.80;99.90;;;;;;4994530;28;20050;-79
2023/05/02 04:33:08;;;;;;;10.10;2.40;;;7.70;99.90;;;;;;5013219;28;20054;-79
2023/05/02 04:35:54;;;;;;;12.25;2.00;;;7.80;99.90;;;;;;4982767;28;20100;-81
2023/05/02 04:38:40;;;;;;;8.55;1.90;;;7.80;99.90;;;;;;4978577;28;20422;-78
2023/05/02 04:41:27;;;;;;;13.18;2.65;;;7.80;99.90;;;;;;4995055;28;20053;-78
2023/05/02 04:44:13;;;;;;;11.45;2.47;;;7.80;99.90;;;;;;4994916;28;20046;-78
2023/05/02 04:46:59;;;;;;;9.00;1.98;;;7.80;99.90;;;;;;4981726;28;20057;-77
2023/05/02 04:49:45;;;;;;;11.75;2.10;;;7.70;99.90;;;;;;4982751;28;20057;-81
2023/05/02 04:52:31;;;;;;;9.35;1.88;;;7.80;99.90;;;;;;4978649;28;20066;-78
2023/05/02 04:55:17;;;;;;;11.55;2.88;;;7.80;99.90;;;;;;4962535;28;20050;-76
2023/05/02 04:58:03;;;;;;;12.82;2.92;;;7.80;99.90;;;;;;4975341;28;20063;-79
2023/05/02 05:00:49;;;;;;;12.77;2.33;;;7.80;99.90;;;;;;4975609;28;20112;-81
2023/05/02 05:03:35;;;;;;;13.93;2.78;;;7.80;99.90;;;;;;4961569;28;20055;-81
2023/05/02 05:06:22;;;;;;;5.97;1.75;;;7.80;99.90;;;;;;4975046;28;20047;-80
2023/05/02 05:09:07;;;;;;;12.25;2.35;;;7.80;99.90;;;;;;4974420;28;20062;-78
2023/05/02 05:11:54;;;;;;;15.93;3.20;;;7.80;99.90;;;;;;4975855;28;20062;-79
2023/05/02 05:14:40;;;;;;;15.65;2.83;;;7.70;99.90;;;;;;4976151;28;20062;-78
2023/05/02 05:17:26;;;;;;;12.77;2.65;;;7.80;99.90;;;;;;4993252;28;20093;-80
2023/05/02 05:20:15;;;;;;;11.38;3.15;;;7.80;99.90;;;;;;4992355;28;20069;-79
2023/05/02 05:23:02;;;;;;;10.32;2.33;;;7.90;99.90;;;;;;4942724;28;20113;-80
2023/05/02 05:25:48;;;;;;;15.68;3.22;;;7.90;99.90;;;;;;4975394;28;20137;-79
2023/05/02 05:28:34;;;;;;;11.63;3.22;;;7.90;99.90;;;;;;4976237;28;20146;-79
2023/05/02 05:31:21;;;;;;;9.50;2.20;;;7.90;99.90;;;;;;4991729;28;20072;-80
2023/05/02 05:34:07;;;;;;;16.85;3.40;;;7.90;99.90;;;;;;4973070;28;20047;-77
2023/05/02 05:36:53;;;;;;;8.65;2.35;;;8.00;99.90;;;;;;4976064;28;20054;-80
2023/05/02 05:39:39;;;;;;;16.05;2.33;;;8.00;99.90;;;;;;4960644;28;20411;-80
2023/05/02 05:42:26;;;;;;;13.10;2.92;;;8.00;99.90;;;;;;4975250;28;20062;-79
2023/05/02 05:45:15;;;;;;;11.70;3.08;;;8.00;99.90;;;;;;4974141;28;20058;-83
2023/05/02 05:48:02;;;;;;;14.30;2.50;;;8.00;99.90;;;;;;4974561;28;20057;-82
2023/05/02 05:50:51;;;;;;;12.57;2.50;;;8.00;99.90;;;;;;4979425;28;20533;-80
2023/05/02 05:53:37;;;;;;;12.10;3.25;;;8.00;99.90;;;;;;5010813;28;20053;-80
2023/05/02 05:56:26;;;;;;;17.63;4.03;;;8.00;99.90;;;;;;4994457;28;20144;-79
2023/05/02 05:59:13;;;;;;;10.68;3.00;;;8.00;99.90;;;;;;4980063;28;20046;-82
2023/05/02 06:02:00;;;;;;;10.32;2.42;;;8.00;99.90;;;;;;4993407;28;20140;-78
2023/05/02 06:04:47;;;;;;;7.72;2.25;;;8.00;99.90;;;;;;5011555;28;20060;-81
2023/05/02 06:07:33;;;;;;;14.05;2.25;;;8.00;99.90;;;;;;5011651;28;20053;-79
2023/05/02 06:10:20;;;;;;;9.80;2.88;;;8.00;99.90;;;;;;4994297;28;20402;-79
2023/05/02 06:13:06;;;;;;;14.80;2.42;;;8.10;99.90;;;;;;4994096;28;20053;-80
2023/05/02 06:15:59;;;;;;;8.10;1.60;;;8.10;99.90;;;;;;5011402;28;20412;-78
2023/05/02 06:18:46;;;;;;;12.88;2.65;;;8.20;99.90;;;;;;5011121;28;20050;-80
2023/05/02 06:21:32;;;;;;;14.15;2.80;;;8.20;99.90;;;;;;5010372;28;20045;-79
2023/05/02 06:24:18;;;;;;;12.27;2.28;;;8.20;99.90;;;;;;5009488;28;20050;-79
2023/05/02 06:27:07;;;;;;;14.15;2.58;;;8.20;99.60;;;;;;4991790;28;20046;-79
2023/05/02 06:29:54;;;;;;;13.50;2.30;;;8.30;99.80;;;;;;4994819;28;20410;-81
2023/05/02 06:32:43;;;;;;;8.65;2.30;;;8.30;99.90;;;;;;4980025;28;20069;-80
2023/05/02 06:35:30;;;;;;;13.02;2.40;;;8.30;99.90;;;;;;4993380;28;20057;-81
2023/05/02 06:38:17;;;;;;;9.80;1.98;;;8.40;99.70;;;;;;5010960;28;20054;-78
2023/05/02 06:41:03;;;;;;;9.73;2.38;;;8.40;99.60;;;;;;4988246;28;20134;-80
2023/05/02 06:43:49;;;;;;;12.35;2.30;;;8.40;99.60;;;;;;5011896;28;20080;-78
2023/05/02 06:46:35;;;;;;;12.32;2.13;;;8.40;99.50;;;;;;4993545;28;20057;-79
2023/05/02 06:49:22;;;;;;;8.07;2.28;;;8.40;99.40;;;;;;4978948;28;20497;-78
2023/05/02 06:52:08;;;;;;;9.60;2.05;;;8.30;99.20;;;;;;4975988;28;20447;-79
2023/05/02 06:54:54;;;;;;;10.20;2.28;;;8.40;99.40;;;;;;4960244;28;20051;-78
2023/05/02 06:57:40;;;;;;;6.22;1.60;;;8.40;99.00;;;;;;4973850;28;20050;-79
2023/05/02 07:00:26;;;;;;;6.50;2.15;;;8.40;99.10;;;;;;4973116;28;20065;-78
2023/05/02 07:03:13;;;;;;;7.18;2.38;;;8.40;99.50;;;;;;4959766;28;20089;-78
2023/05/02 07:05:59;;;;;;;9.55;1.90;;;8.50;99.40;;;;;;4973641;28;20539;-78
2023/05/02 07:08:45;;;;;;;9.65;1.65;;;8.50;99.30;;;;;;4973093;28;20062;-78
2023/05/02 07:11:31;;;;;;;9.82;1.58;;;8.60;99.30;;;;;;4991058;28;20054;-78
2023/05/02 07:14:18;;;;;;;6.90;1.73;;;8.60;99.00;;;;;;4973123;28;20051;-78
2023/05/02 07:17:04;;;;;;;8.38;1.58;;;8.70;98.90;;;;;;4976617;28;20058;-79
2023/05/02 07:19:50;;;;;;;9.73;1.90;;;8.70;98.70;;;;;;4973337;28;20054;-79
2023/05/02 07:22:36;;;;;;;13.05;1.73;;;8.80;99.10;;;;;;4990894;28;20047;-80
2023/05/02 07:25:24;;;;;;;9.30;2.22;;;8.80;99.40;;;;;;4989563;28;20061;-78
2023/05/02 07:28:10;;;;;;;12.48;2.38;;;8.80;99.60;;;;;;4990011;28;20054;-79
2023/05/02 07:30:56;;;;;;;12.15;1.75;;;8.80;99.70;;;;;;4973686;28;20483;-79
2023/05/02 07:33:42;;;;;;;11.45;2.78;;;8.90;99.60;;;;;;4973698;28;20047;-79
2023/05/02 07:36:28;;;;;;;6.72;1.90;;;8.90;99.60;;;;;;4973318;28;20058;-80
2023/05/02 07:39:14;;;;;;;7.72;1.80;;;8.90;99.50;;;;;;4989646;28;20140;-80
2023/05/02 07:42:02;;;;;;;8.00;1.65;;;8.90;99.60;;;;;;4972767;28;20043;-80
2023/05/02 07:44:48;;;;;;;9.45;1.58;;;9.00;99.60;;;;;;4972550;28;20219;-81
2023/05/02 07:47:35;;;;;;;9.75;1.92;;;9.00;99.80;;;;;;4991065;28;20054;-79
2023/05/02 07:50:24;;;;;;;12.85;1.65;;;9.10;99.80;;;;;;4962813;28;20058;-80
2023/05/02 07:53:11;;;;;;;9.88;1.65;;;9.20;99.90;;;;;;4993590;28;20811;-80
2023/05/02 07:55:57;;;;;;;8.27;2.55;;;9.30;99.60;;;;;;4995473;28;20482;-80
2023/05/02 07:58:43;;;;;;;9.32;1.38;;;9.70;99.40;;;;;;4993191;28;20057;-78
2023/05/02 08:01:29;;;;;;;7.28;1.50;;;10.20;99.10;;;;;;4995468;28;20116;-79
2023/05/02 08:04:17;;;;;;;4.88;1.20;;;10.50;98.10;;;;;;4991598;28;20461;-80
2023/05/02 08:07:04;;;;;;;7.93;1.40;;;10.60;97.70;;;;;;4979096;28;20454;-80
2023/05/02 08:09:50;;;;;;;7.07;1.30;;;10.70;97.20;;;;;;4996480;28;20046;-77
2023/05/02 08:12:40;;;;;;;9.27;1.42;;;10.80;97.10;;;;;;4994200;28;20074;-78
2023/05/02 08:15:26;;;;;;;5.65;1.00;;;10.90;96.90;;;;;;4995871;28;20540;-77
2023/05/02 08:18:12;;;;;;;7.20;1.05;;;10.70;96.90;;;;;;4996346;28;20116;-78
2023/05/02 08:21:03;;;;;;;3.03;0.70;;;10.60;97.00;;;;;;4995345;28;20513;-79
2023/05/02 08:23:50;;;;;;;5.15;0.95;;;10.80;97.10;;;;;;4996122;28;20058;-81
2023/05/02 08:26:40;;;;;;;8.15;1.08;;;10.90;97.20;;;;;;5012076;28;20524;-80
2023/05/02 08:29:26;;;;;;;7.40;1.38;;;11.20;97.00;;;;;;4997137;28;20100;-81
2023/05/02 08:32:13;;;;;;;7.15;1.20;;;11.70;96.60;;;;;;4994871;28;20050;-82
2023/05/02 08:34:59;;;;;;;7.43;1.27;;;12.00;96.00;;;;;;4997451;28;20056;-80
2023/05/02 08:37:45;;;;;;;5.13;0.70;;;12.20;95.50;;;;;;4982812;28;20049;-79
2023/05/02 08:40:35;;;;;;;4.10;0.90;;;12.40;95.00;;;;;;4996012;28;20544;-79
2023/05/02 08:43:21;;;;;;;5.40;0.95;;;12.60;95.10;;;;;;4994873;28;20410;-82
2023/05/02 08:46:10;;;;;;;4.65;1.45;;;12.50;94.90;;;;;;5013766;28;20046;-80
2023/05/02 08:49:00;;;;;;;6.18;0.63;;;12.40;94.60;;;;;;4997080;28;20085;-80
2023/05/02 08:51:50;;;;;;;6.85;1.60;;;12.20;94.50;;;;;;4995664;28;20050;-80
2023/05/02 08:54:37;;;;;;;3.55;0.98;;;12.10;94.60;;;;;;5012496;28;20060;-80
2023/05/02 08:57:24;;;;;;;4.63;1.15;;;12.00;95.00;;;;;;5000364;28;20057;-80
2023/05/02 09:00:11;;;;;;;6.43;1.27;;;12.20;95.10;;;;;;4994779;28;20038;-80
2023/05/02 09:02:57;;;;;;;4.70;1.33;;;12.70;95.60;;;;;;5012837;28;20057;-81
2023/05/02 09:05:45;;;;;;;10.60;1.52;;;13.30;94.60;;;;;;4996011;28;20133;-83
2023/05/02 09:08:33;;;;;;;5.25;1.00;;;13.60;94.00;;;;;;4993725;28;20157;-82
2023/05/02 09:11:20;;;;;;;3.83;0.93;;;13.40;93.60;;;;;;4994683;28;20144;-82
2023/05/02 09:14:16;;;;;;;5.93;1.40;;;13.50;93.60;;;;;;4994731;28;20490;-82
2023/05/02 09:17:03;;;;;;;5.55;1.42;;;13.20;93.40;;;;;;4995188;28;20058;-81
2023/05/02 09:20:00;;;;;;;7.90;1.45;;;13.00;94.60;;;;;;4995119;28;20089;-83
2023/05/02 09:22:51;;;;;;;8.25;1.45;;;12.80;94.50;;;;;;4993641;28;20728;-81
2023/05/02 09:25:38;;;;;;;7.50;1.25;;;12.40;95.10;;;;;;4992340;28;20046;-81
2023/05/02 09:28:40;;;;;;;7.03;1.23;;;12.50;95.50;;;;;;4981921;28;20060;-81
2023/05/02 09:31:36;;;;;;;5.72;1.35;;;12.90;94.70;;;;;;4994594;28;20530;-82
2023/05/02 09:34:22;;;;;;;10.80;1.83;;;13.00;94.70;;;;;;5011834;28;20452;-82
2023/05/02 09:37:10;;;;;;;8.77;1.35;;;13.40;94.60;;;;;;4995118;28;20058;-81
2023/05/02 09:40:06;;;;;;;3.17;1.05;;;13.70;94.30;;;;;;4995900;28;20145;-81
2023/05/02 09:42:52;;;;;;;5.65;1.00;;;13.60;94.50;;;;;;4999637;28;20049;-82
2023/05/02 09:45:39;;;;;;;5.90;1.50;;;13.30;95.70;;;;;;5002058;28;20058;-79
2023/05/02 09:48:28;;;;;;;5.15;0.90;;;13.20;96.00;;;;;;4994716;28;20784;-81
2023/05/02 09:51:21;;;;;;;9.05;1.08;;;13.40;96.40;;;;;;4993857;28;20064;-80
2023/05/02 09:54:07;;;;;;;5.70;0.98;;;13.80;94.50;;;;;;4993868;28;20054;-80
2023/05/02 09:56:56;;;;;;;6.57;1.02;;;13.80;94.30;;;;;;4992931;28;20136;-81
2023/05/02 09:59:55;;;;;;;7.43;1.20;;;13.60;94.00;;;;;;4993646;28;20099;-81
2023/05/02 10:02:43;;;;;;;4.00;0.98;;;13.40;94.70;;;;;;4993033;28;20408;-81
2023/05/02 10:05:39;;;;;;;6.10;1.27;;;13.40;96.00;;;;;;4993505;28;20064;-82
2023/05/02 10:08:27;;;;;;;8.65;1.48;;;13.20;95.90;;;;;;4980837;28;20046;-81
2023/05/02 10:11:14;;;;;;;6.28;0.77;;;13.30;96.10;;;;;;4992500;28;20509;-81
2023/05/02 10:14:01;;;;;;;4.20;0.80;;;13.20;95.70;;;;;;4994402;28;20391;-81
2023/05/02 10:17:20;;;;;;;7.13;0.82;;;13.30;95.30;;;;;;4993966;28;20495;-81
2023/05/02 10:20:15;;;;;;;7.13;1.02;;;13.40;94.40;;;;;;4997086;28;20140;-82
2023/05/02 10:23:01;;;;;;;3.85;1.10;;;13.50;95.10;;;;;;5010356;28;20049;-81
2023/05/02 10:25:48;;;;;;;5.70;1.13;;;13.70;95.00;;;;;;4980151;28;20050;-81
2023/05/02 10:28:35;;;;;;;5.22;1.20;;;13.80;94.80;;;;;;4993747;28;20057;-82
2023/05/02 10:31:21;;;;;;;9.50;1.30;;;13.90;94.90;;;;;;4993579;28;20063;-81
2023/05/02 10:34:10;;;;;;;6.45;1.02;;;14.10;95.10;;;;;;4996638;28;20050;-82
2023/05/02 10:37:00;;;;;;;5.22;1.02;;;14.50;94.20;;;;;;4992799;28;20050;-82
2023/05/02 10:39:46;;;;;;;3.65;0.98;;;14.80;94.20;;;;;;4993933;28;20050;-81
2023/05/02 10:42:39;;;;;;;7.00;0.98;;;14.90;94.30;;;;;;4980314;28;20410;-81
2023/05/02 10:45:35;;;;;;;5.28;1.20;;;14.80;93.70;;;;;;4992989;28;20492;-81
2023/05/02 10:48:25;;;;;;;4.88;1.15;;;15.10;94.80;;;;;;4993077;28;20076;-81
2023/05/02 10:51:27;;;;;;;4.18;1.13;;;15.70;93.90;;;;;;5002496;28;20066;-80
2023/05/02 10:54:16;;;;;;;5.50;0.70;;;16.00;91.30;;;;;;4985712;28;20072;-81
2023/05/02 10:57:06;;;;;;;5.72;1.00;;;16.10;89.80;;;;;;4992883;28;20082;-81
2023/05/02 10:59:53;;;;;;;2.80;0.68;;;15.90;90.40;;;;;;4979754;28;20490;-81
2023/05/02 11:02:42;;;;;;;4.95;0.70;;;15.90;91.00;;;;;;4992191;28;20510;-81
2023/05/02 11:05:35;;;;;;;4.18;0.80;;;16.10;90.30;;;;;;4980020;28;20414;-81
2023/05/02 11:08:24;;;;;;;5.85;0.70;;;16.00;89.10;;;;;;5010705;28;20042;-81
2023/05/02 11:11:47;;;;;;;3.47;0.68;;;16.20;89.50;;;;;;4994225;28;20097;-81
2023/05/02 11:14:39;;;;;;;5.90;0.90;;;16.00;85.40;;;;;;4993056;28;20049;-81
2023/05/02 11:17:25;;;;;;;3.25;0.77;;;15.90;85.10;;;;;;5010109;28;20072;-81
2023/05/02 11:20:11;;;;;;;4.03;0.50;;;15.50;85.70;;;;;;4991886;28;20058;-81
2023/05/02 11:23:15;;;;;;;3.47;0.60;;;16.30;87.30;;;;;;4992568;28;20057;-81
2023/05/02 11:26:21;;;;;;;1.35;0.30;;;16.70;84.20;;;;;;4978960;28;20053;-81
2023/05/02 11:29:07;;;;;;;2.95;0.32;;;16.70;70.80;;;;;;4978535;28;20141;-82
2023/05/02 11:31:54;;;;;;;2.15;0.30;;;16.80;74.40;;;;;;5011453;28;20057;-80
2023/05/02 11:34:42;;;;;;;2.22;0.50;;;16.90;73.10;;;;;;4995044;28;20065;-82
2023/05/02 11:37:28;;;;;;;4.53;0.40;;;16.90;71.20;;;;;;5009875;28;20068;-81
2023/05/02 11:40:15;;;;;;;3.15;0.45;;;17.40;72.90;;;;;;4994358;28;20058;-81
2023/05/02 11:43:14;;;;;;;3.90;0.40;;;17.80;72.50;;;;;;4966115;28;20045;-82
2023/05/02 11:46:01;;;;;;;3.63;0.50;;;17.90;71.80;;;;;;4992974;28;20800;-80
2023/05/02 11:48:47;;;;;;;3.67;0.40;;;17.70;71.20;;;;;;4995150;28;20046;-81
2023/05/02 11:51:43;;;;;;;3.97;0.60;;;17.30;70.90;;;;;;5013887;28;20060;-82
2023/05/02 11:54:30;;;;;;;7.00;0.90;;;17.90;71.20;;;;;;4996718;28;20054;-81
2023/05/02 11:57:16;;;;;;;5.13;0.50;;;17.70;69.40;;;;;;4997673;28;20053;-81
2023/05/02 12:00:03;;;;;;;4.43;0.80;;;17.70;71.40;;;;;;5013972;28;20054;-82
2023/05/02 12:02:49;;;;;;;3.03;0.63;;;17.70;71.50;;;;;;4995738;28;20132;-81
2023/05/02 12:05:35;;;;;;;4.05;0.80;;;17.50;72.60;;;;;;5014276;28;20049;-81
2023/05/02 12:08:28;;;;;;;6.00;1.20;;;17.00;76.20;;;;;;4983337;28;20064;-81
2023/05/02 12:11:22;;;;;;;6.18;1.60;;;16.30;78.00;;;;;;4996014;28;20092;-82
2023/05/02 12:14:10;;;;;;;7.65;1.10;;;15.70;82.20;;;;;;4996570;28;20058;-80
2023/05/02 12:16:58;;;;;;;8.70;1.30;;;15.30;84.50;;;;;;4994857;28;20377;-80
2023/05/02 12:19:44;;;;;;;4.10;0.75;;;15.20;83.90;;;;;;5012970;28;20563;-79
2023/05/02 12:22:31;;;;;;;3.38;0.47;;;15.10;83.70;;;;;;4995949;28;20120;-80
2023/05/02 12:25:17;;;;;;;4.45;0.57;;;14.90;82.20;;;;;;4994747;28;20057;-81
2023/05/02 12:28:03;;;;;;;4.47;0.60;;;14.80;81.60;;;;;;5014057;28;20061;-81
2023/05/02 12:30:51;;;;;;;2.38;0.45;;;15.10;81.70;;;;;;4995404;28;20057;-79
2023/05/02 12:33:43;;;;;;;3.33;0.60;;;15.20;81.80;;;;;;4995965;28;20161;-80
2023/05/02 12:36:29;;;;;;;6.13;0.77;;;15.80;82.20;;;;;;5012851;28;20136;-82
2023/05/02 12:39:15;;;;;;;3.25;0.52;;;16.20;79.90;;;;;;4994675;28;20490;-82
2023/05/02 12:42:28;;;;;;;2.17;0.43;;;16.70;78.60;;;;;;4994910;28;20566;-80
2023/05/02 12:45:17;;;;;;;5.15;1.05;;;17.00;77.70;;;;;;4981741;28;20054;-82
2023/05/02 12:48:22;;;;;;;3.22;0.60;;;17.40;74.70;;;;;;4995084;28;20549;-81
2023/05/02 12:51:22;;;;;;;5.07;0.70;;;17.70;70.00;;;;;;4984874;28;20062;-81
2023/05/02 12:54:19;;;;;;;5.18;0.70;;;18.00;70.20;;;;;;4981273;28;20136;-82
2023/05/02 12:57:06;;;;;;;4.93;0.77;;;18.50;72.00;;;;;;5011838;28;20068;-81
2023/05/02 12:59:53;;;;;;;5.00;0.73;;;19.00;71.30;;;;;;5012411;28;20061;-80
2023/05/02 13:02:39;;;;;;;5.80;0.98;;;19.10;71.20;;;;;;5011489;28;20050;-81
2023/05/02 13:05:25;;;;;;;2.78;0.73;;;19.60;69.80;;;;;;4996563;28;20137;-81
2023/05/02 13:08:11;;;;;;;3.25;0.85;;;19.60;68.50;;;;;;4994679;28;20060;-81
2023/05/02 13:10:57;;;;;;;5.50;0.95;;;20.10;69.20;;;;;;4981112;28;20096;-81
2023/05/02 13:13:43;;;;;;;4.75;0.70;;;19.90;66.70;;;;;;4994267;28;20530;-83
2023/05/02 13:16:32;;;;;;;4.85;0.68;;;20.50;67.00;;;;;;4980550;28;20088;-81
2023/05/02 13:19:21;;;;;;;3.00;1.05;;;20.70;64.70;;;;;;4994942;28;20049;-82
2023/05/02 13:22:10;;;;;;;3.72;0.55;;;20.20;64.60;;;;;;4982338;28;20049;-80
2023/05/02 13:24:56;;;;;;;6.05;0.90;;;19.70;63.00;;;;;;4995109;28;20054;-81
2023/05/02 13:27:42;;;;;;;7.13;0.70;;;19.60;64.60;;;;;;4994565;28;20088;-81
2023/05/02 13:30:28;;;;;;;4.07;0.85;;;19.00;65.80;;;;;;5011932;28;20105;-81
2023/05/02 13:33:14;;;;;;;6.15;1.38;;;18.20;68.80;;;;;;4995005;28;20064;-79
2023/05/02 13:36:01;;;;;;;5.28;0.82;;;17.30;70.60;;;;;;4979825;28;20049;-80
2023/05/02 13:38:48;;;;;;;6.50;1.17;;;16.70;72.30;;;;;;4979771;28;20046;-80
2023/05/02 13:41:36;;;;;;;5.20;0.68;;;16.50;73.70;;;;;;4994522;28;20456;-79
2023/05/02 13:44:22;;;;;;;3.38;0.60;;;16.80;75.30;;;;;;5011605;28;20112;-79
2023/05/02 13:47:08;;;;;;;4.10;0.80;;;16.70;73.10;;;;;;4994659;28;20085;-81
2023/05/02 13:49:54;;;;;;;3.00;0.70;;;18.10;71.90;;;;;;4994117;28;20050;-80
2023/05/02 13:52:41;;;;;;;1.77;0.43;;;19.40;66.50;;;;;;5011405;28;20145;-80
2023/05/02 13:55:27;;;;;;;6.35;0.77;;;20.20;65.20;;;;;;4997338;28;20057;-81
2023/05/02 13:58:13;;;;;;;3.17;0.75;;;21.10;64.20;;;;;;4993521;28;20081;-81
2023/05/02 14:00:59;;;;;;;4.50;1.13;;;21.90;60.70;;;;;;4974559;28;20061;-80
2023/05/02 14:03:48;;;;;;;3.70;0.80;;;20.90;60.00;;;;;;4992909;28;20096;-80
2023/05/02 14:06:36;;;;;;;6.72;1.20;;;19.80;61.90;;;;;;4981416;28;20772;-82
2023/05/02 14:09:22;;;;;;;6.93;0.90;;;19.00;63.30;;;;;;4993487;28;20057;-81
2023/05/02 14:12:08;;;;;;;4.30;0.90;;;19.00;66.00;;;;;;4979558;28;20387;-81
2023/05/02 14:14:54;;;;;;;5.70;1.00;;;18.40;65.00;;;;;;4994051;28;20054;-82
2023/05/02 14:17:40;;;;;;;6.38;1.05;;;17.80;65.20;;;;;;4993721;28;20443;-80
2023/05/02 14:20:26;;;;;;;5.15;0.88;;;17.20;66.70;;;;;;4996827;28;20081;-81
2023/05/02 14:23:15;;;;;;;4.60;0.70;;;16.60;68.30;;;;;;5011303;28;20111;-81
2023/05/02 14:26:01;;;;;;;3.05;0.68;;;16.20;69.30;;;;;;4992216;28;20050;-81
2023/05/02 14:28:47;;;;;;;4.90;0.90;;;15.80;71.00;;;;;;4993212;28;20141;-80
2023/05/02 14:31:35;;;;;;;5.70;1.05;;;15.70;72.60;;;;;;4980186;28;20536;-83
2023/05/02 14:34:25;;;;;;;4.35;0.93;;;16.50;71.70;;;;;;5010638;28;20046;-79
2023/05/02 14:37:11;;;;;;;6.03;1.08;;;17.90;67.00;;;;;;4979670;28;20093;-82
2023/05/02 14:39:57;;;;;;;2.75;0.68;;;18.60;66.60;;;;;;4980029;28;20053;-80
2023/05/02 14:42:43;;;;;;;5.30;1.00;;;18.90;62.50;;;;;;4992150;28;20092;-80